Time;durP1;ratioP1;P1;durP2;ratioP2;P2;SDS_P1;SDS_P2;PMS_P1;PMS_P2;Temp;Humidity;BMP_temperature;BMP_pressure;BME280_temperature;BME280_humidity;BME280_pressure;Samples;Min_cycle;Max_cycle;Signal;HPM_P1;HPM_P2
2023/10/06 00:00:53;;;;;;;9.37;3.03;;;15.40;99.90;;;;;;6244285;22;20869;-90
2023/10/06 00:03:21;;;;;;;9.48;2.90;;;15.50;99.90;;;;;;6241728;22;20499;-90
2023/10/06 00:05:52;;;;;;;7.85;2.92;;;15.30;99.90;;;;;;6269728;22;20881;-92
2023/10/06 00:08:22;;;;;;;8.63;3.10;;;15.50;99.90;;;;;;6243635;22;20861;-91
2023/10/06 00:10:53;;;;;;;9.30;3.00;;;15.50;99.90;;;;;;6267506;22;20372;-90
2023/10/06 00:13:23;;;;;;;9.80;2.97;;;15.10;99.90;;;;;;6268695;22;20438;-90
2023/10/06 00:15:51;;;;;;;7.85;3.17;;;15.50;99.90;;;;;;6241911;22;20372;-90
2023/10/06 00:18:23;;;;;;;9.67;2.97;;;15.70;99.90;;;;;;6269450;22;20371;-90
2023/10/06 00:20:55;;;;;;;8.45;2.80;;;15.50;99.90;;;;;;6242291;22;20768;-90
2023/10/06 00:23:22;;;;;;;8.07;2.92;;;15.80;99.90;;;;;;6269086;22;20372;-92
2023/10/06 00:25:54;;;;;;;10.50;2.87;;;15.40;99.90;;;;;;6270076;22;20423;-91
2023/10/06 00:28:28;;;;;;;11.48;3.10;;;15.20;99.90;;;;;;6267252;22;20376;-90
2023/10/06 00:30:56;;;;;;;11.82;3.25;;;15.80;99.90;;;;;;6243887;22;20462;-91
2023/10/06 00:33:32;;;;;;;10.27;2.72;;;15.40;99.90;;;;;;6267427;22;20371;-91
2023/10/06 00:36:15;;;;;;;9.82;3.10;;;15.20;99.90;;;;;;6268925;22;20364;-91
2023/10/06 00:38:45;;;;;;;8.90;2.77;;;15.30;99.90;;;;;;6269082;22;20382;-90
2023/10/06 00:41:17;;;;;;;8.82;2.60;;;15.70;99.90;;;;;;6267514;22;20369;-91
2023/10/06 00:43:43;;;;;;;9.20;2.90;;;15.20;99.90;;;;;;6243827;22;20360;-91
2023/10/06 00:46:18;;;;;;;9.95;2.97;;;15.50;99.90;;;;;;6241540;22;20364;-90
2023/10/06 00:48:45;;;;;;;10.07;2.80;;;15.20;99.90;;;;;;6243479;22;20372;-91
2023/10/06 00:51:22;;;;;;;12.30;3.10;;;15.30;99.90;;;;;;6242693;22;20364;-90
2023/10/06 00:53:51;;;;;;;9.70;3.33;;;15.30;99.90;;;;;;6242275;22;20380;-91
2023/10/06 00:56:19;;;;;;;11.35;3.35;;;15.40;99.90;;;;;;6243480;22;20891;-90
2023/10/06 00:58:45;;;;;;;10.85;3.50;;;15.30;99.90;;;;;;6241469;22;20504;-89
2023/10/06 01:01:16;;;;;;;12.85;3.47;;;15.30;99.90;;;;;;6243487;22;20376;-90
2023/10/06 01:04:08;;;;;;;12.77;3.40;;;15.40;99.90;;;;;;6267067;22;20364;-88
2023/10/06 01:06:38;;;;;;;12.07;3.50;;;15.30;99.90;;;;;;6267378;22;20373;-91
2023/10/06 01:09:17;;;;;;;11.10;3.07;;;15.60;99.90;;;;;;6243204;22;20368;-94
2023/10/06 01:11:47;;;;;;;12.30;3.50;;;15.30;99.90;;;;;;6240790;22;20390;-89
2023/10/06 01:14:15;;;;;;;7.93;2.85;;;15.60;99.90;;;;;;6268967;22;20399;-90
2023/10/06 01:16:43;;;;;;;10.10;3.17;;;15.30;99.90;;;;;;6241721;22;20360;-89
2023/10/06 01:19:28;;;;;;;10.55;3.30;;;15.30;99.90;;;;;;6268600;22;20662;-92
2023/10/06 01:21:55;;;;;;;10.18;3.28;;;15.30;99.90;;;;;;6242776;22;20400;-90
2023/10/06 01:24:24;;;;;;;9.23;3.17;;;15.40;99.90;;;;;;6245770;22;20845;-89
2023/10/06 01:26:59;;;;;;;12.80;3.40;;;15.30;99.90;;;;;;6248605;22;20842;-91
2023/10/06 01:29:30;;;;;;;10.27;3.67;;;15.30;99.90;;;;;;6247014;22;20724;-88
2023/10/06 01:31:57;;;;;;;10.43;3.40;;;15.30;99.90;;;;;;6273618;22;20362;-90
2023/10/06 01:34:24;;;;;;;11.68;4.00;;;15.30;99.90;;;;;;6246578;22;20374;-92
2023/10/06 01:36:53;;;;;;;13.10;4.47;;;15.30;99.90;;;;;;6273072;22;20943;-90
2023/10/06 01:39:23;;;;;;;10.53;4.07;;;15.30;99.90;;;;;;6273258;22;20390;-89
2023/10/06 01:41:49;;;;;;;11.88;4.30;;;15.80;99.90;;;;;;6245276;22;20370;-90
2023/10/06 01:44:17;;;;;;;11.32;4.30;;;15.30;99.90;;;;;;6273600;22;20390;-93
2023/10/06 01:46:53;;;;;;;11.48;4.10;;;15.30;99.90;;;;;;6246577;22;20445;-91
2023/10/06 01:49:21;;;;;;;11.77;4.65;;;15.20;99.90;;;;;;6273713;22;20420;-91
2023/10/06 01:51:50;;;;;;;11.98;5.00;;;15.40;99.90;;;;;;6246780;22;20396;-91
2023/10/06 01:54:17;;;;;;;11.00;4.38;;;15.30;99.90;;;;;;6272958;22;20704;-90
2023/10/06 01:56:44;;;;;;;9.65;4.55;;;15.60;99.90;;;;;;6248444;22;20362;-91
2023/10/06 01:59:10;;;;;;;13.27;5.25;;;15.20;99.90;;;;;;6271567;22;20358;-90
2023/10/06 02:01:41;;;;;;;12.95;5.00;;;15.60;99.90;;;;;;6247672;22;20832;-91
2023/10/06 02:04:19;;;;;;;11.13;4.78;;;15.40;99.90;;;;;;6270977;22;20382;-91
2023/10/06 02:06:45;;;;;;;14.48;5.63;;;15.50;99.90;;;;;;6273999;22;20370;-93
2023/10/06 02:09:15;;;;;;;11.90;5.43;;;15.10;99.90;;;;;;6272260;22;20371;-92
2023/10/06 02:11:49;;;;;;;11.75;5.30;;;15.30;99.90;;;;;;6272708;22;20409;-90
2023/10/06 02:14:18;;;;;;;11.05;5.32;;;15.70;99.90;;;;;;6248007;22;20374;-90
2023/10/06 02:16:44;;;;;;;12.43;5.75;;;15.30;99.90;;;;;;6245879;22;20366;-90
2023/10/06 02:19:11;;;;;;;12.90;5.15;;;15.20;99.90;;;;;;6273747;22;20358;-90
2023/10/06 02:21:44;;;;;;;12.40;5.28;;;15.60;99.90;;;;;;6271185;22;20362;-91
2023/10/06 02:24:10;;;;;;;11.50;5.33;;;15.70;99.90;;;;;;6246863;22;20390;-90
2023/10/06 02:26:36;;;;;;;13.38;5.28;;;15.40;99.90;;;;;;6272681;22;20377;-89
2023/10/06 02:29:07;;;;;;;9.77;4.50;;;15.40;99.90;;;;;;6271419;22;20673;-90
2023/10/06 02:31:35;;;;;;;12.57;5.13;;;15.50;99.90;;;;;;6273836;22;20957;-90
2023/10/06 02:34:01;;;;;;;13.05;5.10;;;15.30;99.90;;;;;;6271140;22;20363;-91
2023/10/06 02:36:26;;;;;;;11.52;4.72;;;15.10;99.90;;;;;;6273001;22;20457;-90
2023/10/06 02:38:52;;;;;;;10.47;4.60;;;15.50;99.90;;;;;;6245677;22;20467;-91
2023/10/06 02:41:20;;;;;;;10.52;4.65;;;15.20;99.90;;;;;;6248475;22;20902;-91
2023/10/06 02:43:52;;;;;;;11.80;4.47;;;15.60;99.90;;;;;;6272274;22;20359;-92
2023/10/06 02:46:23;;;;;;;11.35;4.70;;;15.60;99.90;;;;;;6271984;22;20732;-91
2023/10/06 02:48:49;;;;;;;11.30;4.65;;;15.40;99.90;;;;;;6273173;22;20451;-90
2023/10/06 02:51:28;;;;;;;12.77;4.55;;;15.50;99.90;;;;;;6271039;22;20454;-90
2023/10/06 02:54:01;;;;;;;12.80;5.10;;;15.60;99.90;;;;;;6272994;22;20416;-91
2023/10/06 02:56:29;;;;;;;12.15;4.43;;;15.60;99.90;;;;;;6271497;22;20369;-89
2023/10/06 02:58:59;;;;;;;11.80;4.65;;;15.70;99.90;;;;;;6247130;22;20366;-89
2023/10/06 03:01:24;;;;;;;11.37;4.80;;;16.00;99.90;;;;;;6273845;22;20401;-89
2023/10/06 03:04:05;;;;;;;14.10;5.10;;;15.60;99.90;;;;;;6245698;22;20367;-90
2023/10/06 03:06:32;;;;;;;13.60;4.95;;;15.30;99.90;;;;;;6273133;22;20358;-90
2023/10/06 03:08:58;;;;;;;12.70;4.87;;;15.30;99.90;;;;;;6271331;22;20446;-91
2023/10/06 03:11:25;;;;;;;13.13;5.13;;;15.70;99.90;;;;;;6274071;22;20393;-91
2023/10/06 03:13:54;;;;;;;12.23;4.90;;;15.70;99.90;;;;;;6273274;22;20367;-89
2023/10/06 03:16:21;;;;;;;14.48;5.70;;;15.50;99.90;;;;;;6273362;22;20367;-92
2023/10/06 03:18:52;;;;;;;13.60;6.18;;;15.40;99.90;;;;;;6248983;22;20374;-91
2023/10/06 03:21:18;;;;;;;12.75;6.00;;;14.90;99.90;;;;;;6247366;22;20400;-93
2023/10/06 03:23:45;;;;;;;13.65;6.65;;;15.30;99.90;;;;;;6249465;22;20371;-91
2023/10/06 03:26:25;;;;;;;15.90;6.07;;;15.90;99.90;;;;;;6273252;22;20390;-91
2023/10/06 03:28:53;;;;;;;15.32;6.05;;;15.40;99.90;;;;;;6275111;22;20371;-91
2023/10/06 03:33:50;;;;;;;15.80;6.22;;;15.20;99.90;;;;;;6274770;22;20375;-92
2023/10/06 03:36:16;;;;;;;15.63;5.75;;;15.20;99.90;;;;;;6275653;22;20699;-89
2023/10/06 03:38:51;;;;;;;15.48;5.97;;;15.30;99.90;;;;;;6247691;22;20808;-91
2023/10/06 03:41:24;;;;;;;17.33;6.17;;;15.10;99.90;;;;;;6274895;22;20378;-90
2023/10/06 03:43:55;;;;;;;13.13;5.82;;;15.30;99.90;;;;;;6273147;22;20405;-89
2023/10/06 03:46:22;;;;;;;15.75;6.60;;;15.70;99.90;;;;;;6249134;22;20370;-91
2023/10/06 03:48:50;;;;;;;15.07;6.82;;;15.50;99.90;;;;;;6274152;22;20366;-92
2023/10/06 03:51:17;;;;;;;14.82;6.60;;;14.90;99.90;;;;;;6273694;22;20374;-89
2023/10/06 03:53:48;;;;;;;14.30;7.85;;;15.60;99.90;;;;;;6275272;22;20393;-90
2023/10/06 03:56:18;;;;;;;17.27;8.05;;;15.60;99.90;;;;;;6273259;22;20355;-89
2023/10/06 03:58:45;;;;;;;18.92;8.73;;;15.20;99.90;;;;;;6274893;22;20354;-90
2023/10/06 04:01:17;;;;;;;18.85;9.15;;;15.50;99.90;;;;;;6272509;22;20362;-90
2023/10/06 04:03:43;;;;;;;19.02;9.55;;;15.60;99.90;;;;;;6274408;22;20358;-87
2023/10/06 04:06:12;;;;;;;17.93;9.33;;;15.50;99.90;;;;;;6271825;22;20393;-89
2023/10/06 04:08:40;;;;;;;21.45;10.32;;;15.60;99.90;;;;;;6246722;22;20373;-89
2023/10/06 04:11:05;;;;;;;19.80;10.13;;;15.60;99.90;;;;;;6274231;22;20741;-90
2023/10/06 04:13:31;;;;;;;19.38;9.82;;;15.70;99.90;;;;;;6272312;22;20358;-90
2023/10/06 04:15:58;;;;;;;18.23;9.90;;;15.60;99.90;;;;;;6274480;22;20374;-92
2023/10/06 04:18:24;;;;;;;17.20;9.97;;;15.60;99.90;;;;;;6272655;22;20377;-91
2023/10/06 04:20:51;;;;;;;17.30;10.18;;;15.50;99.90;;;;;;6248875;22;20363;-92
2023/10/06 04:23:18;;;;;;;17.27;9.98;;;15.60;99.90;;;;;;6247943;22;20366;-89
2023/10/06 04:25:45;;;;;;;18.53;10.17;;;15.60;99.90;;;;;;6249260;22;20429;-89
2023/10/06 04:28:16;;;;;;;16.05;8.93;;;15.30;99.90;;;;;;6249177;22;20381;-93
2023/10/06 04:30:43;;;;;;;16.75;10.50;;;16.00;99.90;;;;;;6247818;22;20358;-90
2023/10/06 04:33:10;;;;;;;21.23;10.73;;;15.90;99.90;;;;;;6249408;22;20365;-89
2023/10/06 04:36:07;;;;;;;18.67;9.30;;;15.70;99.90;;;;;;6247599;22;20384;-90
2023/10/06 04:38:38;;;;;;;17.83;9.77;;;15.60;99.90;;;;;;6249119;22;20370;-90
2023/10/06 04:41:08;;;;;;;18.02;9.85;;;16.00;99.90;;;;;;6249169;22;20403;-91
2023/10/06 04:43:35;;;;;;;19.10;9.23;;;15.60;99.90;;;;;;6272536;22;20611;-91
2023/10/06 04:46:01;;;;;;;16.35;9.02;;;15.60;99.90;;;;;;6249070;22;20393;-90
2023/10/06 04:48:29;;;;;;;15.88;8.88;;;15.60;99.90;;;;;;6246515;22;20445;-90
2023/10/06 04:50:55;;;;;;;15.10;8.30;;;15.40;99.90;;;;;;6274285;22;20448;-89
2023/10/06 04:53:22;;;;;;;13.50;8.32;;;15.30;99.90;;;;;;6272062;22;20704;-89
2023/10/06 04:55:51;;;;;;;16.58;8.63;;;15.30;99.90;;;;;;6247547;22;20409;-91
2023/10/06 04:58:18;;;;;;;17.27;8.60;;;15.30;99.90;;;;;;6273388;22;20370;-90
2023/10/06 05:00:52;;;;;;;15.27;8.50;;;15.40;99.90;;;;;;6247140;22;20374;-92
2023/10/06 05:03:19;;;;;;;17.08;8.65;;;15.60;99.90;;;;;;6273754;22;20773;-91
2023/10/06 05:05:44;;;;;;;19.17;8.50;;;15.40;99.90;;;;;;6247129;22;20398;-91
2023/10/06 05:08:14;;;;;;;17.25;8.73;;;15.50;99.90;;;;;;6248823;22;20374;-90
2023/10/06 05:10:41;;;;;;;18.10;9.68;;;15.40;99.90;;;;;;6273084;22;20401;-91
2023/10/06 05:13:07;;;;;;;18.83;10.60;;;15.80;99.90;;;;;;6249064;22;20432;-92
2023/10/06 05:15:34;;;;;;;23.35;10.93;;;15.50;99.90;;;;;;6248012;22;20363;-91
2023/10/06 05:18:04;;;;;;;18.65;10.32;;;15.40;99.90;;;;;;6250166;22;20402;-93
2023/10/06 05:20:31;;;;;;;19.42;10.27;;;15.20;99.90;;;;;;6249332;22;20367;-90
2023/10/06 05:23:09;;;;;;;20.65;9.93;;;15.50;99.90;;;;;;6275172;22;20388;-96
2023/10/06 05:25:35;;;;;;;19.25;9.63;;;15.20;99.90;;;;;;6251365;22;20406;-92
2023/10/06 05:28:02;;;;;;;18.55;9.63;;;15.10;99.90;;;;;;6247091;22;20375;-91
2023/10/06 05:30:28;;;;;;;17.67;9.73;;;15.10;99.90;;;;;;6248894;22;20358;-91
2023/10/06 05:32:57;;;;;;;17.65;9.57;;;15.50;99.90;;;;;;6272547;22;20416;-90
2023/10/06 05:35:40;;;;;;;22.25;10.75;;;15.60;99.90;;;;;;6249304;22;20370;-91
2023/10/06 05:38:15;;;;;;;17.05;8.55;;;15.00;99.90;;;;;;6252064;22;20874;-92
2023/10/06 05:40:41;;;;;;;16.60;9.43;;;15.10;99.90;;;;;;6251267;22;20371;-92
2023/10/06 05:43:12;;;;;;;19.00;9.38;;;15.30;99.90;;;;;;6251097;22;20553;-91
2023/10/06 05:45:57;;;;;;;19.15;9.00;;;15.40;99.90;;;;;;6249362;22;20394;-92
2023/10/06 05:48:25;;;;;;;16.63;9.13;;;15.20;99.90;;;;;;6248845;22;20370;-89
2023/10/06 05:50:52;;;;;;;18.52;9.82;;;15.80;99.90;;;;;;6272025;22;20359;-90
2023/10/06 05:53:23;;;;;;;18.95;9.18;;;15.30;99.90;;;;;;6273975;22;20374;-92
2023/10/06 05:55:52;;;;;;;19.75;9.18;;;15.20;99.90;;;;;;6249141;22;20625;-91
2023/10/06 05:58:23;;;;;;;18.58;9.05;;;15.20;99.90;;;;;;6248199;22;20359;-91
2023/10/06 06:00:55;;;;;;;19.70;9.32;;;15.30;99.90;;;;;;6247272;22;20450;-91
2023/10/06 06:03:25;;;;;;;17.10;9.60;;;15.40;99.90;;;;;;6245926;22;20396;-94
2023/10/06 06:05:53;;;;;;;18.58;9.25;;;15.70;99.90;;;;;;6248996;22;20378;-89
2023/10/06 06:08:22;;;;;;;17.00;9.38;;;15.20;99.90;;;;;;6245840;22;20871;-89
2023/10/06 06:10:47;;;;;;;16.10;8.98;;;15.30;99.90;;;;;;6273263;22;20367;-91
2023/10/06 06:13:18;;;;;;;18.93;9.47;;;15.60;99.90;;;;;;6273728;22;20458;-90
2023/10/06 06:15:44;;;;;;;20.23;9.67;;;15.30;99.90;;;;;;6246341;22;20358;-90
2023/10/06 06:18:13;;;;;;;16.98;9.70;;;15.60;99.90;;;;;;6249632;22;20488;-94
2023/10/06 06:20:41;;;;;;;17.67;9.77;;;15.60;99.90;;;;;;6247316;22;21090;-94
2023/10/06 06:23:12;;;;;;;19.60;10.20;;;15.30;99.90;;;;;;6276381;22;20358;-93
2023/10/06 06:25:38;;;;;;;20.10;10.23;;;15.40;99.90;;;;;;6242903;22;20392;-91
2023/10/06 06:28:05;;;;;;;21.98;10.45;;;15.60;99.90;;;;;;6272732;22;20360;-93
2023/10/06 06:30:34;;;;;;;18.95;9.93;;;15.30;99.90;;;;;;6242563;22;20899;-91
2023/10/06 06:33:04;;;;;;;20.98;9.98;;;15.60;99.90;;;;;;6242603;22;20456;-92
2023/10/06 06:35:30;;;;;;;20.63;9.85;;;15.70;99.90;;;;;;6268941;22;20364;-90
2023/10/06 06:38:01;;;;;;;20.90;10.20;;;15.40;99.90;;;;;;6241258;22;20435;-91
2023/10/06 06:40:30;;;;;;;21.73;9.50;;;15.30;99.90;;;;;;6244889;22;20371;-90
2023/10/06 06:42:57;;;;;;;20.83;10.20;;;15.60;99.90;;;;;;6244117;22;20372;-95
2023/10/06 06:45:27;;;;;;;25.33;11.05;;;15.30;99.90;;;;;;6249944;22;20762;-95
2023/10/06 06:47:53;;;;;;;21.08;10.75;;;15.60;99.90;;;;;;6246208;22;20364;-93
2023/10/06 06:50:20;;;;;;;22.50;10.93;;;15.40;99.90;;;;;;6244925;22;20395;-93
2023/10/06 06:52:53;;;;;;;22.10;11.43;;;15.10;99.90;;;;;;6243103;22;20561;-96
2023/10/06 06:55:29;;;;;;;22.42;10.30;;;15.30;99.90;;;;;;6247758;22;20361;-95
2023/10/06 06:57:57;;;;;;;25.23;11.70;;;14.70;99.90;;;;;;6247052;22;20376;-93
2023/10/06 07:00:24;;;;;;;26.55;12.18;;;15.50;99.90;;;;;;6242933;22;20364;-93
2023/10/06 07:02:52;;;;;;;22.90;11.93;;;15.40;99.90;;;;;;6248337;22;20478;-92
2023/10/06 07:05:22;;;;;;;21.85;11.50;;;15.70;99.90;;;;;;6243138;22;20392;-93
2023/10/06 07:07:52;;;;;;;22.15;11.88;;;15.50;99.90;;;;;;6246850;22;20820;-93
2023/10/06 07:10:22;;;;;;;21.33;12.50;;;15.60;99.90;;;;;;6244567;22;20841;-90
2023/10/06 07:12:51;;;;;;;26.57;12.27;;;15.50;99.90;;;;;;6244853;22;20379;-92
2023/10/06 07:15:19;;;;;;;26.08;13.60;;;15.30;99.90;;;;;;6245677;22;20513;-90
2023/10/06 07:17:49;;;;;;;21.70;12.47;;;15.30;99.90;;;;;;6268588;22;20371;-92
2023/10/06 07:20:19;;;;;;;22.75;13.05;;;15.40;99.90;;;;;;6245721;22;20368;-91
2023/10/06 07:22:53;;;;;;;22.85;11.93;;;15.40;99.90;;;;;;6244103;22;20361;-90
2023/10/06 07:25:20;;;;;;;23.48;13.18;;;15.60;99.90;;;;;;6245347;22;20392;-91
2023/10/06 07:27:47;;;;;;;24.25;12.77;;;16.20;99.90;;;;;;6245506;22;20380;-91
2023/10/06 07:30:14;;;;;;;25.80;13.05;;;15.80;99.90;;;;;;6244242;22;20371;-92
2023/10/06 07:32:41;;;;;;;21.92;11.95;;;15.50;99.90;;;;;;6246249;22;20983;-93
2023/10/06 07:35:11;;;;;;;24.33;13.53;;;15.80;99.90;;;;;;6243269;22;20367;-92
2023/10/06 07:37:39;;;;;;;27.87;14.67;;;15.80;99.90;;;;;;6246390;22;20371;-93
2023/10/06 07:40:12;;;;;;;25.70;14.27;;;16.30;99.90;;;;;;6246065;22;20372;-94
2023/10/06 07:42:42;;;;;;;22.92;13.02;;;15.50;99.90;;;;;;6249422;22;20343;-94
2023/10/06 07:45:09;;;;;;;26.67;14.00;;;15.50;99.90;;;;;;6243680;22;20388;-93
2023/10/06 07:47:36;;;;;;;26.60;13.80;;;15.50;99.90;;;;;;6245847;22;20364;-94
2023/10/06 07:50:06;;;;;;;25.42;13.80;;;15.60;99.90;;;;;;6220802;22;20455;-92
2023/10/06 07:52:33;;;;;;;24.10;13.17;;;15.60;99.90;;;;;;6244270;22;20447;-92
2023/10/06 07:54:59;;;;;;;22.05;12.93;;;16.00;99.90;;;;;;6249914;22;20395;-95
2023/10/06 07:57:31;;;;;;;22.90;13.35;;;15.70;99.90;;;;;;6243729;22;20811;-94
2023/10/06 07:59:59;;;;;;;20.60;11.38;;;16.00;99.90;;;;;;6247298;22;20366;-95
2023/10/06 08:02:29;;;;;;;20.83;11.40;;;15.70;99.90;;;;;;6246843;22;20371;-94
2023/10/06 08:04:57;;;;;;;21.20;12.07;;;15.90;99.90;;;;;;6247829;22;20388;-96
2023/10/06 08:07:30;;;;;;;22.13;12.23;;;16.10;99.90;;;;;;6244338;22;20368;-92
2023/10/06 08:10:00;;;;;;;23.70;12.48;;;16.10;99.90;;;;;;6244192;22;20882;-92
2023/10/06 08:12:27;;;;;;;23.67;12.50;;;16.10;99.90;;;;;;6245994;22;20920;-93
2023/10/06 08:14:54;;;;;;;23.27;12.77;;;16.20;99.90;;;;;;6243159;22;20371;-91
2023/10/06 08:17:20;;;;;;;20.58;11.57;;;16.20;99.90;;;;;;6248259;22;20372;-93
2023/10/06 08:19:46;;;;;;;19.35;11.90;;;16.70;99.90;;;;;;6243172;22;20378;-94
2023/10/06 08:22:15;;;;;;;22.03;12.53;;;16.60;99.90;;;;;;6245691;22;20944;-91
2023/10/06 08:24:43;;;;;;;19.25;11.40;;;16.30;99.90;;;;;;6243068;22;20391;-93
2023/10/06 08:27:13;;;;;;;19.70;10.07;;;16.70;99.90;;;;;;6247635;22;20426;-94
2023/10/06 08:29:39;;;;;;;18.35;9.52;;;16.40;99.90;;;;;;6223036;22;20460;-93
2023/10/06 08:32:06;;;;;;;21.10;10.27;;;16.50;99.90;;;;;;6243469;22;20396;-92
2023/10/06 08:34:32;;;;;;;18.38;9.80;;;16.80;99.90;;;;;;6245540;22;20722;-91
2023/10/06 08:37:01;;;;;;;17.80;9.63;;;16.90;99.90;;;;;;6242432;22;20364;-93
2023/10/06 08:39:38;;;;;;;18.88;10.27;;;16.80;99.90;;;;;;6245967;22;20379;-95
2023/10/06 08:42:09;;;;;;;19.17;9.17;;;16.70;99.90;;;;;;6243112;22;20383;-91
2023/10/06 08:44:38;;;;;;;19.95;9.23;;;16.80;99.90;;;;;;6244253;22;20479;-91
2023/10/06 08:47:14;;;;;;;17.23;9.27;;;16.80;99.90;;;;;;6246396;22;20369;-96
2023/10/06 08:49:41;;;;;;;19.20;9.60;;;17.30;99.90;;;;;;6268740;22;20387;-93
2023/10/06 08:52:12;;;;;;;16.73;9.40;;;17.00;99.90;;;;;;6245937;22;20373;-91
2023/10/06 08:54:38;;;;;;;20.42;8.70;;;17.00;99.90;;;;;;6243063;22;20392;-93
2023/10/06 08:57:03;;;;;;;17.42;8.73;;;17.40;99.90;;;;;;6245346;22;20360;-93
2023/10/06 08:59:33;;;;;;;17.80;8.10;;;17.30;99.90;;;;;;6242711;22;20360;-92
2023/10/06 09:02:01;;;;;;;19.50;8.45;;;17.30;99.90;;;;;;6246206;22;20368;-93
2023/10/06 09:04:34;;;;;;;17.75;7.45;;;16.70;99.90;;;;;;6243992;22;20392;-90
2023/10/06 09:07:17;;;;;;;17.13;7.35;;;17.40;99.90;;;;;;6269179;22;20758;-93
2023/10/06 09:09:43;;;;;;;17.77;7.38;;;17.30;99.90;;;;;;6244851;22;20372;-91
2023/10/06 09:12:26;;;;;;;14.57;7.22;;;17.50;99.90;;;;;;6241877;22;20371;-93
2023/10/06 09:14:55;;;;;;;18.75;7.38;;;17.40;99.90;;;;;;6271364;22;20368;-92
2023/10/06 09:17:33;;;;;;;19.55;6.82;;;17.80;99.90;;;;;;6248465;22;20833;-90
2023/10/06 09:19:59;;;;;;;17.33;7.63;;;17.40;99.90;;;;;;6268502;22;20383;-90
2023/10/06 09:22:29;;;;;;;14.95;6.80;;;17.80;99.90;;;;;;6244584;22;20384;-93
2023/10/06 09:25:04;;;;;;;14.73;7.20;;;17.40;99.90;;;;;;6241741;22;20388;-91
2023/10/06 09:27:32;;;;;;;17.75;6.93;;;17.60;99.90;;;;;;6244258;22;20387;-92
2023/10/06 09:29:59;;;;;;;17.42;7.25;;;17.40;99.90;;;;;;6267770;22;20372;-95
2023/10/06 09:32:25;;;;;;;14.60;6.85;;;17.50;99.90;;;;;;6244870;22;20369;-95
2023/10/06 09:34:57;;;;;;;13.23;6.55;;;17.70;99.90;;;;;;6270060;22;20369;-93
2023/10/06 09:37:24;;;;;;;18.43;6.87;;;17.50;99.90;;;;;;6242424;22;20376;-90
2023/10/06 09:40:18;;;;;;;13.38;6.78;;;17.80;99.90;;;;;;6269096;22;20408;-92
2023/10/06 09:42:49;;;;;;;17.42;7.07;;;17.70;99.90;;;;;;6240758;22;20887;-90
2023/10/06 09:45:20;;;;;;;16.65;6.70;;;18.00;99.90;;;;;;6268777;22;20442;-90
2023/10/06 09:47:50;;;;;;;17.83;7.00;;;17.90;99.90;;;;;;6267354;22;20958;-91
2023/10/06 09:50:19;;;;;;;15.85;6.10;;;18.50;99.90;;;;;;6267789;22;20407;-90
2023/10/06 09:52:47;;;;;;;15.48;5.45;;;18.30;99.90;;;;;;6268893;22;20451;-91
2023/10/06 09:55:17;;;;;;;13.60;5.70;;;18.50;99.90;;;;;;6266354;22;20392;-90
2023/10/06 09:57:47;;;;;;;14.57;6.15;;;18.60;99.90;;;;;;6267870;22;20365;-90
2023/10/06 10:00:17;;;;;;;14.63;5.05;;;18.80;99.90;;;;;;6264930;22;20361;-90
2023/10/06 10:02:47;;;;;;;14.43;4.80;;;18.60;99.90;;;;;;6263095;22;20378;-89
2023/10/06 10:05:19;;;;;;;14.82;4.75;;;18.80;99.90;;;;;;6262890;22;20889;-90
2023/10/06 10:07:48;;;;;;;16.70;5.28;;;18.40;99.90;;;;;;6267108;22;20883;-92
2023/10/06 10:10:15;;;;;;;15.52;5.25;;;18.40;99.90;;;;;;6243124;22;20368;-92
2023/10/06 10:12:55;;;;;;;14.23;4.25;;;18.80;99.90;;;;;;6239792;22;20360;-90
2023/10/06 10:15:37;;;;;;;14.63;4.13;;;18.40;99.90;;;;;;6267544;22;20372;-90
2023/10/06 10:18:35;;;;;;;15.77;5.10;;;18.60;99.90;;;;;;6240974;22;20679;-89
2023/10/06 10:21:02;;;;;;;14.80;3.90;;;18.80;99.90;;;;;;6266622;22;20376;-89
2023/10/06 10:23:31;;;;;;;17.25;3.85;;;19.10;99.90;;;;;;6268167;22;20667;-90
2023/10/06 10:26:23;;;;;;;14.20;3.95;;;19.10;99.90;;;;;;6265347;22;20533;-90
2023/10/06 10:29:15;;;;;;;15.88;3.78;;;19.20;99.90;;;;;;6246043;22;20745;-90
2023/10/06 10:32:01;;;;;;;14.55;3.83;;;19.40;99.90;;;;;;6270990;22;20380;-90
2023/10/06 10:34:33;;;;;;;13.68;3.10;;;19.50;99.90;;;;;;6243771;22;20436;-94
2023/10/06 10:37:05;;;;;;;12.43;3.38;;;19.60;99.90;;;;;;6271781;22;20403;-91
2023/10/06 10:39:51;;;;;;;13.88;3.22;;;20.00;99.90;;;;;;6244304;22;20376;-92
2023/10/06 10:42:38;;;;;;;14.85;3.35;;;19.90;99.90;;;;;;6247790;22;20455;-91
2023/10/06 10:45:36;;;;;;;13.70;2.90;;;20.00;99.90;;;;;;6271642;22;20430;-93
2023/10/06 10:48:13;;;;;;;13.33;3.10;;;20.10;99.90;;;;;;6244553;22;20374;-92
2023/10/06 10:50:55;;;;;;;12.40;2.78;;;20.00;99.90;;;;;;6272054;22;20372;-89
2023/10/06 10:53:21;;;;;;;12.13;2.57;;;20.00;99.90;;;;;;6245649;22;20466;-90
2023/10/06 10:55:50;;;;;;;13.05;2.55;;;20.40;99.90;;;;;;6270436;22;20394;-91
2023/10/06 10:58:44;;;;;;;12.30;2.47;;;20.00;99.90;;;;;;6246507;22;20404;-93
2023/10/06 11:01:29;;;;;;;12.77;2.65;;;20.00;99.90;;;;;;6244150;22;20368;-90
2023/10/06 11:06:55;;;;;;;11.05;2.22;;;19.90;99.90;;;;;;6205053;22;20379;-92
2023/10/06 11:09:29;;;;;;;11.57;2.37;;;19.90;99.90;;;;;;6243533;22;20382;-91
2023/10/06 11:12:19;;;;;;;12.60;2.33;;;20.10;99.90;;;;;;6270922;22;20363;-92
2023/10/06 11:14:46;;;;;;;12.57;2.43;;;20.00;99.90;;;;;;6243815;22;20376;-88
2023/10/06 11:17:12;;;;;;;13.53;2.90;;;20.20;99.90;;;;;;6244696;22;20368;-91
2023/10/06 11:19:39;;;;;;;11.95;2.30;;;19.90;99.90;;;;;;6244650;22;20375;-89
2023/10/06 11:22:19;;;;;;;12.05;2.53;;;20.10;99.90;;;;;;6242421;22;20392;-90
2023/10/06 11:24:46;;;;;;;12.27;2.03;;;19.80;99.90;;;;;;6270334;22;20840;-91
2023/10/06 11:27:16;;;;;;;14.13;2.35;;;19.80;99.90;;;;;;6268311;22;20407;-91
2023/10/06 11:29:45;;;;;;;13.85;2.70;;;19.70;99.90;;;;;;6270417;22;20379;-90
2023/10/06 11:32:11;;;;;;;12.50;2.60;;;19.60;99.90;;;;;;6243969;22;20364;-92
2023/10/06 11:34:37;;;;;;;12.88;2.78;;;19.80;99.90;;;;;;6244195;22;20471;-91
2023/10/06 11:37:05;;;;;;;11.50;2.07;;;20.40;99.90;;;;;;6245589;22;20410;-89
2023/10/06 11:39:31;;;;;;;10.18;2.30;;;20.10;99.90;;;;;;6267989;22;20361;-91
2023/10/06 11:42:22;;;;;;;14.23;2.78;;;20.50;99.90;;;;;;6244144;22;20371;-93
2023/10/06 11:44:48;;;;;;;12.80;2.27;;;20.10;99.90;;;;;;6241983;22;20940;-92
2023/10/06 11:47:13;;;;;;;13.45;2.50;;;20.10;99.90;;;;;;6243541;22;20399;-90
2023/10/06 11:49:58;;;;;;;12.07;2.33;;;20.40;99.90;;;;;;6268517;22;20400;-90
2023/10/06 11:52:24;;;;;;;12.60;2.17;;;20.10;99.90;;;;;;6241376;22;20395;-92
2023/10/06 11:54:51;;;;;;;13.90;2.50;;;20.00;99.90;;;;;;6243777;22;20423;-93
2023/10/06 11:57:18;;;;;;;11.93;2.33;;;20.20;99.90;;;;;;6241715;22;20372;-92
2023/10/06 11:59:53;;;;;;;12.38;2.17;;;20.70;99.90;;;;;;6245496;22;20414;-92
2023/10/06 12:02:21;;;;;;;11.35;2.55;;;20.20;99.90;;;;;;6268018;22;20414;-93
2023/10/06 12:04:48;;;;;;;11.05;2.05;;;20.20;99.90;;;;;;6243556;22;20880;-92
2023/10/06 12:07:26;;;;;;;11.82;2.15;;;20.20;99.90;;;;;;6243540;22;20390;-92
2023/10/06 12:10:03;;;;;;;11.65;2.03;;;20.20;99.90;;;;;;6241614;22;20380;-92
2023/10/06 12:12:29;;;;;;;11.38;2.25;;;20.30;99.90;;;;;;6268883;22;20750;-90
2023/10/06 12:14:56;;;;;;;11.57;2.40;;;21.00;99.90;;;;;;6266819;22;20380;-90
2023/10/06 12:17:23;;;;;;;11.55;2.10;;;21.00;99.90;;;;;;6244063;22;20371;-91
2023/10/06 12:19:49;;;;;;;12.02;2.55;;;20.80;99.90;;;;;;6267652;22;20365;-91
2023/10/06 12:22:16;;;;;;;11.90;2.50;;;20.80;99.90;;;;;;6243364;22;20408;-91
2023/10/06 12:24:42;;;;;;;11.13;2.28;;;21.00;99.90;;;;;;6243010;22;20478;-90
2023/10/06 12:27:09;;;;;;;13.93;2.47;;;20.90;99.90;;;;;;6266200;22;20864;-93
2023/10/06 12:29:35;;;;;;;10.25;2.03;;;20.90;99.90;;;;;;6269125;22;20388;-90
2023/10/06 12:32:01;;;;;;;12.40;2.47;;;20.60;99.90;;;;;;6241148;22;20706;-91
2023/10/06 12:34:31;;;;;;;10.95;2.28;;;20.40;99.90;;;;;;6269283;22;20364;-94
2023/10/06 12:37:01;;;;;;;11.13;2.03;;;20.30;99.90;;;;;;6241684;22;20375;-92
2023/10/06 12:39:34;;;;;;;13.77;2.15;;;20.30;99.90;;;;;;6269033;22;20507;-91
2023/10/06 12:42:00;;;;;;;11.25;2.08;;;20.20;99.90;;;;;;6268912;22;20375;-89
2023/10/06 12:44:27;;;;;;;10.68;2.10;;;20.50;99.90;;;;;;6267181;22;20360;-88
2023/10/06 12:46:56;;;;;;;11.70;2.10;;;20.20;99.90;;;;;;6268887;22;20372;-90
2023/10/06 12:49:23;;;;;;;12.52;2.17;;;20.20;99.90;;;;;;6267200;22;20406;-91
2023/10/06 12:51:49;;;;;;;13.13;2.80;;;20.10;99.90;;;;;;6267996;22;20751;-90
2023/10/06 12:54:15;;;;;;;12.87;2.60;;;20.00;99.90;;;;;;6241472;22;20364;-91
2023/10/06 12:56:44;;;;;;;14.27;2.53;;;20.00;99.90;;;;;;6269107;22;20371;-90